Time;durP1;ratioP1;P1;durP2;ratioP2;P2;SDS_P1;SDS_P2;PMS_P1;PMS_P2;Temp;Humidity;BMP_temperature;BMP_pressure;BME280_temperature;BME280_humidity;BME280_pressure;Samples;Min_cycle;Max_cycle;Signal;HPM_P1;HPM_P2
2022/03/13 00:00:49;;;;;;;43.08;20.98;;;2.70;55.70;;;;;;4937880;28;20035;-66
2022/03/13 00:03:17;;;;;;;43.78;22.17;;;2.70;55.90;;;;;;4945736;28;20577;-65
2022/03/13 00:05:45;;;;;;;46.92;22.52;;;2.60;55.70;;;;;;4941076;28;20550;-65
2022/03/13 00:08:29;;;;;;;48.80;23.90;;;2.60;55.90;;;;;;4940978;28;20041;-66
2022/03/13 00:11:07;;;;;;;43.70;21.45;;;2.60;56.40;;;;;;4939431;28;20043;-65
2022/03/13 00:13:40;;;;;;;40.25;21.50;;;2.50;56.30;;;;;;4940290;28;20039;-66
2022/03/13 00:16:08;;;;;;;46.20;22.48;;;2.50;56.20;;;;;;4932131;28;20039;-65
2022/03/13 00:18:41;;;;;;;45.58;22.98;;;2.50;56.30;;;;;;4937718;28;20455;-65
2022/03/13 00:21:09;;;;;;;51.03;23.67;;;2.40;56.40;;;;;;4940081;28;20035;-66
2022/03/13 00:23:35;;;;;;;46.83;22.80;;;2.40;56.40;;;;;;4938870;28;20535;-66
2022/03/13 00:26:04;;;;;;;43.80;21.27;;;2.40;56.50;;;;;;4939675;28;20136;-66
2022/03/13 00:28:30;;;;;;;47.70;21.90;;;2.40;56.50;;;;;;4939330;28;20039;-65
2022/03/13 00:30:56;;;;;;;42.83;22.15;;;2.30;56.40;;;;;;4937959;28;20027;-66
2022/03/13 00:33:22;;;;;;;39.78;19.73;;;2.40;56.40;;;;;;4939708;28;20035;-65
2022/03/13 00:35:49;;;;;;;38.90;19.98;;;2.40;56.50;;;;;;4938335;28;20090;-65
2022/03/13 00:38:15;;;;;;;43.30;22.17;;;2.40;56.60;;;;;;4939204;28;20035;-66
2022/03/13 00:40:41;;;;;;;37.58;20.00;;;2.40;56.70;;;;;;4938037;28;20031;-65
2022/03/13 00:43:09;;;;;;;37.42;20.20;;;2.30;56.70;;;;;;4939818;28;20047;-66
2022/03/13 00:45:35;;;;;;;37.30;19.70;;;2.30;56.60;;;;;;4939264;28;20027;-66
2022/03/13 00:48:01;;;;;;;42.08;21.20;;;2.30;56.60;;;;;;4938067;28;20424;-66
2022/03/13 00:50:26;;;;;;;38.88;19.92;;;2.30;56.70;;;;;;4940065;28;20047;-65
2022/03/13 00:52:53;;;;;;;33.28;19.67;;;2.30;56.80;;;;;;4937661;28;20496;-65
2022/03/13 00:55:19;;;;;;;36.17;19.42;;;2.20;56.70;;;;;;4937742;28;20039;-64
2022/03/13 00:57:45;;;;;;;37.47;20.77;;;2.20;56.60;;;;;;4936259;28;20035;-66
2022/03/13 01:00:13;;;;;;;36.05;20.13;;;2.30;56.80;;;;;;4937606;28;20043;-65
2022/03/13 01:02:39;;;;;;;40.95;20.60;;;2.20;56.70;;;;;;4935972;28;20040;-65
2022/03/13 01:05:08;;;;;;;37.97;21.23;;;2.20;56.70;;;;;;4938637;28;20039;-66
2022/03/13 01:07:34;;;;;;;37.70;20.58;;;2.10;56.90;;;;;;4939268;28;20031;-66
2022/03/13 01:10:00;;;;;;;37.25;21.40;;;2.10;56.80;;;;;;4938225;28;20039;-66
2022/03/13 01:12:26;;;;;;;41.28;20.70;;;2.20;56.70;;;;;;4938515;28;20043;-66
2022/03/13 01:14:51;;;;;;;35.90;20.25;;;2.10;56.70;;;;;;4938699;28;20032;-65
2022/03/13 01:17:19;;;;;;;35.20;20.00;;;2.10;56.70;;;;;;4938448;28;20051;-64
2022/03/13 01:19:45;;;;;;;36.00;19.90;;;2.20;56.80;;;;;;4940050;28;20515;-65
2022/03/13 01:22:12;;;;;;;40.08;21.55;;;2.10;56.80;;;;;;4940060;28;20070;-66
2022/03/13 01:24:46;;;;;;;37.13;19.73;;;2.10;57.70;;;;;;4940403;28;20046;-65
2022/03/13 01:27:16;;;;;;;39.78;19.55;;;2.10;57.10;;;;;;4941109;28;20028;-65
2022/03/13 01:29:43;;;;;;;34.75;18.90;;;2.10;57.10;;;;;;4939517;28;20454;-66
2022/03/13 01:32:10;;;;;;;36.90;20.00;;;2.10;57.10;;;;;;4935663;28;20031;-66
2022/03/13 01:34:43;;;;;;;39.25;20.00;;;2.10;57.20;;;;;;4935517;28;20035;-66
2022/03/13 01:37:32;;;;;;;33.53;19.58;;;2.00;57.10;;;;;;4935320;28;20047;-65
2022/03/13 01:40:00;;;;;;;37.22;20.30;;;2.00;57.50;;;;;;4934552;28;20526;-65
2022/03/13 01:42:26;;;;;;;36.17;19.85;;;2.00;57.40;;;;;;4934691;28;20054;-65
2022/03/13 01:44:52;;;;;;;35.67;19.98;;;1.90;57.50;;;;;;4938633;28;20126;-64
2022/03/13 01:47:18;;;;;;;40.63;20.20;;;1.90;57.50;;;;;;4935877;28;20111;-65
2022/03/13 01:49:46;;;;;;;34.90;19.67;;;1.90;57.60;;;;;;4937543;28;20587;-65
2022/03/13 01:52:14;;;;;;;44.20;20.90;;;1.80;57.80;;;;;;4938463;28;20122;-65
2022/03/13 01:54:40;;;;;;;37.63;20.50;;;1.80;58.00;;;;;;4935469;28;20032;-66
2022/03/13 01:57:06;;;;;;;37.53;20.23;;;1.80;58.20;;;;;;4937646;28;20083;-66
2022/03/13 01:59:31;;;;;;;36.72;19.27;;;1.70;58.20;;;;;;4937709;28;20035;-65
2022/03/13 02:01:57;;;;;;;36.15;19.50;;;1.70;58.20;;;;;;4941021;28;20043;-66
2022/03/13 02:04:26;;;;;;;32.55;18.52;;;1.60;58.20;;;;;;4937303;28;20466;-65
2022/03/13 02:06:55;;;;;;;37.28;19.52;;;1.60;58.20;;;;;;4937973;28;20500;-65
2022/03/13 02:09:21;;;;;;;35.92;19.08;;;1.60;58.20;;;;;;4937160;28;20114;-65
2022/03/13 02:11:47;;;;;;;33.45;18.67;;;1.60;58.20;;;;;;4931824;28;20035;-65
2022/03/13 02:14:17;;;;;;;40.65;20.02;;;1.50;58.20;;;;;;4938689;28;20054;-65
2022/03/13 02:16:44;;;;;;;37.78;20.00;;;1.50;58.40;;;;;;4937537;28;20062;-65
2022/03/13 02:19:10;;;;;;;37.53;19.80;;;1.50;58.30;;;;;;4937371;28;20145;-65
2022/03/13 02:21:44;;;;;;;34.55;18.92;;;1.50;58.30;;;;;;4935628;28;20047;-66
2022/03/13 02:24:17;;;;;;;34.40;18.80;;;1.40;58.80;;;;;;4943126;28;20078;-66
2022/03/13 02:26:54;;;;;;;38.23;21.10;;;1.40;58.60;;;;;;4936328;28;20314;-66
2022/03/13 02:29:20;;;;;;;36.90;18.63;;;1.40;58.50;;;;;;4937728;28;20594;-65
2022/03/13 02:31:46;;;;;;;38.55;20.42;;;1.40;58.40;;;;;;4933474;28;20071;-66
2022/03/13 02:34:13;;;;;;;54.42;23.75;;;1.40;58.60;;;;;;4937396;28;20043;-65
2022/03/13 02:36:38;;;;;;;64.13;25.58;;;1.40;58.60;;;;;;4937635;28;20515;-65
2022/03/13 02:39:09;;;;;;;122.10;38.78;;;1.30;58.50;;;;;;4935109;28;20059;-65
2022/03/13 02:41:35;;;;;;;52.95;23.35;;;1.30;58.80;;;;;;4935694;28;20159;-66
2022/03/13 02:44:00;;;;;;;42.95;20.73;;;1.30;58.80;;;;;;4936477;28;20107;-65
2022/03/13 02:46:54;;;;;;;42.33;20.90;;;1.20;58.80;;;;;;4935349;28;20058;-65
2022/03/13 02:49:21;;;;;;;36.58;19.02;;;1.20;59.70;;;;;;4931225;28;20032;-65
2022/03/13 02:51:50;;;;;;;40.83;20.73;;;1.20;58.90;;;;;;4933548;28;20035;-65
2022/03/13 02:54:16;;;;;;;38.97;19.95;;;1.20;59.10;;;;;;4936289;28;20090;-66
2022/03/13 02:56:43;;;;;;;36.20;19.55;;;1.20;58.90;;;;;;4934639;28;20036;-64
2022/03/13 02:59:09;;;;;;;40.05;20.20;;;1.20;58.90;;;;;;4934548;28;20331;-65
2022/03/13 03:01:37;;;;;;;38.10;20.33;;;1.10;58.90;;;;;;4936258;28;20098;-65
2022/03/13 03:04:03;;;;;;;39.05;20.33;;;1.10;59.10;;;;;;4936570;28;20537;-66
2022/03/13 03:06:30;;;;;;;35.20;20.10;;;1.10;59.00;;;;;;4935274;28;20047;-66
2022/03/13 03:08:56;;;;;;;40.50;19.92;;;1.00;59.10;;;;;;4935499;28;20091;-65
2022/03/13 03:11:22;;;;;;;44.95;20.73;;;1.00;59.10;;;;;;4933623;28;20079;-65
2022/03/13 03:13:48;;;;;;;38.45;20.00;;;1.00;59.10;;;;;;4934502;28;20031;-65
2022/03/13 03:16:14;;;;;;;37.53;18.98;;;1.00;59.20;;;;;;4935376;28;20039;-66
2022/03/13 03:18:40;;;;;;;34.22;19.20;;;1.00;59.20;;;;;;4935534;28;20035;-65
2022/03/13 03:21:06;;;;;;;40.42;19.77;;;0.90;59.20;;;;;;4936164;28;20032;-66
2022/03/13 03:23:31;;;;;;;39.45;19.40;;;0.90;59.10;;;;;;4938021;28;20506;-65
2022/03/13 03:25:57;;;;;;;34.30;18.52;;;0.90;59.20;;;;;;4939253;28;20043;-66
2022/03/13 03:28:23;;;;;;;35.47;18.42;;;0.90;59.20;;;;;;4938556;28;20060;-66
2022/03/13 03:30:49;;;;;;;34.70;18.63;;;0.90;59.20;;;;;;4938822;28;20565;-65
2022/03/13 03:33:15;;;;;;;35.40;18.88;;;0.90;59.20;;;;;;4939688;28;20040;-65
2022/03/13 03:35:41;;;;;;;35.88;19.13;;;0.90;59.20;;;;;;4943296;28;20066;-65
2022/03/13 03:38:07;;;;;;;36.25;17.83;;;0.90;59.30;;;;;;4940682;28;20063;-65
2022/03/13 03:40:33;;;;;;;33.28;16.67;;;0.90;59.40;;;;;;4940436;28;20110;-66
2022/03/13 03:43:02;;;;;;;35.17;18.15;;;0.90;59.30;;;;;;4936944;28;20047;-66
2022/03/13 03:45:28;;;;;;;37.53;18.98;;;0.90;59.30;;;;;;4939798;28;20697;-65
2022/03/13 03:47:53;;;;;;;36.05;17.63;;;0.90;59.50;;;;;;4939191;28;20558;-66
2022/03/13 03:50:20;;;;;;;35.97;17.83;;;0.80;59.50;;;;;;4939792;28;20048;-65
2022/03/13 03:52:46;;;;;;;32.67;18.25;;;0.80;59.50;;;;;;4936516;28;20047;-65
2022/03/13 03:55:12;;;;;;;33.67;17.77;;;0.80;59.60;;;;;;4939779;28;20518;-66
2022/03/13 03:57:38;;;;;;;37.17;17.65;;;0.80;59.70;;;;;;4940145;28;20078;-66
2022/03/13 04:00:06;;;;;;;33.63;16.75;;;0.70;59.70;;;;;;4939052;28;20036;-66
2022/03/13 04:02:32;;;;;;;32.60;17.75;;;0.70;59.90;;;;;;4939262;28;20049;-66
2022/03/13 04:04:58;;;;;;;31.15;17.15;;;0.70;59.80;;;;;;4941756;28;20031;-66
2022/03/13 04:07:24;;;;;;;33.00;17.70;;;0.70;59.80;;;;;;4939358;28;20032;-65
2022/03/13 04:09:49;;;;;;;34.67;17.65;;;0.70;59.90;;;;;;4940724;28;20031;-65
2022/03/13 04:12:16;;;;;;;32.90;17.15;;;0.70;59.90;;;;;;4940571;28;20036;-66
2022/03/13 04:14:42;;;;;;;35.17;17.95;;;0.70;59.80;;;;;;4940834;28;20046;-66
2022/03/13 04:17:08;;;;;;;32.92;17.90;;;0.70;59.60;;;;;;4938804;28;20179;-65
2022/03/13 04:19:34;;;;;;;33.92;18.05;;;0.70;59.60;;;;;;4940557;28;20138;-65
2022/03/13 04:21:59;;;;;;;32.97;17.02;;;0.70;59.80;;;;;;4938537;28;20063;-66
2022/03/13 04:24:25;;;;;;;33.13;17.05;;;0.70;59.70;;;;;;4936856;28;20047;-65
2022/03/13 04:26:51;;;;;;;30.58;16.92;;;0.70;59.70;;;;;;4938165;28;20335;-65
2022/03/13 04:29:18;;;;;;;28.27;15.88;;;0.70;59.70;;;;;;4938281;28;20119;-66
2022/03/13 04:31:44;;;;;;;30.48;16.70;;;0.80;59.70;;;;;;4934973;28;20035;-66
2022/03/13 04:34:10;;;;;;;30.45;16.02;;;0.80;59.50;;;;;;4938557;28;20039;-66
2022/03/13 04:36:37;;;;;;;32.35;17.00;;;0.70;59.50;;;;;;4938885;28;20066;-65
2022/03/13 04:39:07;;;;;;;35.97;17.40;;;0.70;59.50;;;;;;4937440;28;20023;-66
2022/03/13 04:41:33;;;;;;;31.83;17.17;;;0.80;59.70;;;;;;4937619;28;20391;-65
2022/03/13 04:43:59;;;;;;;32.22;17.17;;;0.70;59.50;;;;;;4938138;28;20099;-66
2022/03/13 04:46:25;;;;;;;33.03;17.10;;;0.70;59.50;;;;;;4936265;28;20425;-66
2022/03/13 04:48:53;;;;;;;31.35;16.77;;;0.70;59.50;;;;;;4936314;28;20536;-65
2022/03/13 04:51:19;;;;;;;33.70;16.92;;;0.70;59.50;;;;;;4940324;28;20145;-66
2022/03/13 04:53:45;;;;;;;29.25;15.98;;;0.70;59.50;;;;;;4937658;28;20046;-66
2022/03/13 04:56:11;;;;;;;30.30;16.67;;;0.70;59.50;;;;;;4934885;28;20048;-66
2022/03/13 04:58:37;;;;;;;33.13;17.67;;;0.70;59.40;;;;;;4937799;28;20042;-64
2022/03/13 05:01:03;;;;;;;31.67;17.38;;;0.60;59.40;;;;;;4937423;28;20035;-66
2022/03/13 05:03:31;;;;;;;30.52;16.80;;;0.60;59.50;;;;;;4938835;28;20090;-65
2022/03/13 05:05:57;;;;;;;34.80;18.75;;;0.60;59.60;;;;;;4936768;28;20150;-66
2022/03/13 05:08:23;;;;;;;32.10;18.00;;;0.50;59.70;;;;;;4937570;28;20065;-66
2022/03/13 05:10:50;;;;;;;39.05;19.80;;;0.50;59.80;;;;;;4931461;28;20047;-65
2022/03/13 05:13:17;;;;;;;37.05;19.30;;;0.40;59.80;;;;;;4918318;28;20067;-66
2022/03/13 05:15:44;;;;;;;39.58;19.50;;;0.40;59.90;;;;;;4916159;28;20032;-65
2022/03/13 05:18:12;;;;;;;35.05;18.35;;;0.40;60.10;;;;;;4917675;28;20419;-66
2022/03/13 05:20:38;;;;;;;38.70;20.10;;;0.40;60.00;;;;;;4920129;28;20058;-66
2022/03/13 05:23:05;;;;;;;37.25;19.45;;;0.30;59.80;;;;;;4920583;28;20606;-66
2022/03/13 05:25:32;;;;;;;37.55;19.95;;;0.30;60.00;;;;;;4920833;28;20043;-66
2022/03/13 05:28:05;;;;;;;34.90;17.95;;;0.30;59.90;;;;;;4920901;29;20039;-66
2022/03/13 05:30:31;;;;;;;32.97;18.08;;;0.30;60.30;;;;;;4919553;28;20131;-66
2022/03/13 05:32:57;;;;;;;34.47;18.15;;;0.30;60.00;;;;;;4916997;29;20500;-66
2022/03/13 05:35:24;;;;;;;35.80;18.45;;;0.30;60.00;;;;;;4920978;28;20043;-66
2022/03/13 05:37:50;;;;;;;34.50;18.40;;;0.30;59.90;;;;;;4920109;28;20075;-66
2022/03/13 05:40:17;;;;;;;39.85;18.92;;;0.30;59.90;;;;;;4920561;28;20035;-65
2022/03/13 05:42:45;;;;;;;35.47;18.10;;;0.40;59.90;;;;;;4920041;28;20031;-65
2022/03/13 05:45:16;;;;;;;35.17;18.27;;;0.40;59.90;;;;;;4920270;28;20032;-66
2022/03/13 05:47:52;;;;;;;31.73;17.05;;;0.40;59.90;;;;;;4918806;28;20539;-66
2022/03/13 05:50:20;;;;;;;34.45;16.70;;;0.40;60.30;;;;;;4932648;28;20071;-66
2022/03/13 05:52:46;;;;;;;31.85;16.48;;;0.30;59.80;;;;;;4919550;28;20032;-65
2022/03/13 05:55:13;;;;;;;30.38;16.77;;;0.30;59.80;;;;;;4918553;29;20475;-66
2022/03/13 05:57:39;;;;;;;31.65;16.52;;;0.30;59.70;;;;;;4919655;28;20220;-66
2022/03/13 06:00:08;;;;;;;30.75;16.55;;;0.30;59.70;;;;;;4918187;29;20032;-66
2022/03/13 06:02:38;;;;;;;34.80;17.15;;;0.30;59.80;;;;;;4919366;28;20096;-66
2022/03/13 06:05:04;;;;;;;31.13;17.17;;;0.30;59.80;;;;;;4919972;28;20079;-66
2022/03/13 06:07:29;;;;;;;30.90;16.58;;;0.30;59.80;;;;;;4918269;28;20028;-66
2022/03/13 06:10:02;;;;;;;28.77;16.25;;;0.30;59.80;;;;;;4916111;28;20087;-66
2022/03/13 06:12:27;;;;;;;28.20;14.40;;;0.30;59.90;;;;;;4931978;28;20039;-66
2022/03/13 06:14:53;;;;;;;32.05;15.85;;;0.30;59.90;;;;;;4935150;28;20717;-64
2022/03/13 06:17:19;;;;;;;31.98;16.98;;;0.30;59.80;;;;;;4935323;28;20043;-66
2022/03/13 06:19:44;;;;;;;32.60;17.95;;;0.30;59.90;;;;;;4935243;28;20055;-66
2022/03/13 06:22:12;;;;;;;30.48;17.00;;;0.40;60.00;;;;;;4935167;28;20373;-66
2022/03/13 06:24:37;;;;;;;33.65;17.48;;;0.30;60.00;;;;;;4936732;28;20511;-65
2022/03/13 06:27:04;;;;;;;32.72;16.40;;;0.30;59.90;;;;;;4936015;28;20044;-65
2022/03/13 06:29:31;;;;;;;33.08;17.17;;;0.40;60.00;;;;;;4937082;28;20598;-65
2022/03/13 06:31:57;;;;;;;32.90;16.40;;;0.40;60.00;;;;;;4933546;28;20040;-66
2022/03/13 06:34:23;;;;;;;32.35;16.70;;;0.40;60.20;;;;;;4935977;28;20036;-66
2022/03/13 06:36:48;;;;;;;33.75;16.92;;;0.40;60.10;;;;;;4932841;28;20053;-65
2022/03/13 06:39:14;;;;;;;32.20;17.88;;;0.40;60.30;;;;;;4933746;28;20066;-65
2022/03/13 06:41:40;;;;;;;35.28;19.38;;;0.40;60.40;;;;;;4938275;28;20046;-66
2022/03/13 06:44:05;;;;;;;38.20;19.77;;;0.40;60.40;;;;;;4937014;28;20522;-65
2022/03/13 06:46:32;;;;;;;40.33;19.98;;;0.50;60.60;;;;;;4935254;28;20046;-66
2022/03/13 06:48:59;;;;;;;38.53;19.63;;;0.50;60.70;;;;;;4928429;28;20033;-64
2022/03/13 06:51:25;;;;;;;37.58;19.63;;;0.50;60.70;;;;;;4927310;28;20443;-65
2022/03/13 06:53:51;;;;;;;35.03;18.83;;;0.60;60.70;;;;;;4928443;28;20031;-64
2022/03/13 06:56:17;;;;;;;32.75;17.90;;;0.60;60.90;;;;;;4929233;28;20559;-64
2022/03/13 06:58:42;;;;;;;36.85;16.95;;;0.60;60.90;;;;;;4935744;28;20426;-65
2022/03/13 07:01:09;;;;;;;34.40;17.90;;;0.70;60.90;;;;;;4939615;28;20036;-65
2022/03/13 07:03:34;;;;;;;31.75;17.13;;;0.70;60.90;;;;;;4936351;28;20043;-65
2022/03/13 07:06:04;;;;;;;33.70;17.58;;;0.80;60.90;;;;;;4940689;28;20406;-64
2022/03/13 07:08:32;;;;;;;30.05;16.52;;;0.90;61.10;;;;;;4940803;28;20091;-65
2022/03/13 07:10:59;;;;;;;37.53;17.23;;;0.90;61.10;;;;;;4941186;28;20048;-65
2022/03/13 07:13:31;;;;;;;34.42;17.48;;;1.00;60.90;;;;;;4941728;28;20051;-65
2022/03/13 07:15:59;;;;;;;36.00;17.63;;;1.00;60.90;;;;;;4939744;28;20641;-65
2022/03/13 07:18:26;;;;;;;33.60;17.00;;;1.10;60.80;;;;;;4943144;28;20031;-65
2022/03/13 07:20:52;;;;;;;39.10;19.60;;;1.20;60.80;;;;;;4939407;28;20035;-64
2022/03/13 07:23:18;;;;;;;36.50;20.42;;;1.20;60.70;;;;;;4940925;28;20090;-65
2022/03/13 07:25:43;;;;;;;33.22;18.10;;;1.30;60.60;;;;;;4941232;28;20520;-65
2022/03/13 07:28:09;;;;;;;34.95;19.77;;;1.40;60.60;;;;;;4942490;28;20046;-66
2022/03/13 07:30:35;;;;;;;32.17;17.52;;;1.50;60.40;;;;;;4937024;28;20035;-65
2022/03/13 07:33:00;;;;;;;34.17;17.85;;;1.50;60.20;;;;;;4939079;28;20444;-64
2022/03/13 07:35:27;;;;;;;33.03;17.38;;;1.60;60.00;;;;;;4939541;28;20042;-65
2022/03/13 07:37:52;;;;;;;36.50;19.80;;;1.60;59.90;;;;;;4937851;28;20031;-65
2022/03/13 07:40:18;;;;;;;36.38;19.58;;;1.80;59.80;;;;;;4939541;28;20502;-66
2022/03/13 07:42:44;;;;;;;31.42;15.38;;;1.90;59.80;;;;;;4939795;28;20093;-65
2022/03/13 07:45:10;;;;;;;27.48;15.02;;;1.90;59.50;;;;;;4938690;28;20046;-65
2022/03/13 07:47:36;;;;;;;27.20;13.60;;;2.00;59.30;;;;;;4939201;28;20083;-65
2022/03/13 07:50:02;;;;;;;28.98;14.73;;;2.10;59.20;;;;;;4936364;28;20130;-65
2022/03/13 07:52:27;;;;;;;26.08;13.63;;;2.20;59.20;;;;;;4937340;28;20035;-65
2022/03/13 07:54:53;;;;;;;21.30;11.48;;;2.30;58.80;;;;;;4941109;28;20125;-66
2022/03/13 07:57:19;;;;;;;19.40;11.68;;;2.40;58.60;;;;;;4940014;28;20083;-65
2022/03/13 07:59:47;;;;;;;20.83;11.77;;;2.50;58.20;;;;;;4938374;28;20129;-65
2022/03/13 08:02:13;;;;;;;20.88;11.10;;;2.60;57.70;;;;;;4932057;28;20081;-65
2022/03/13 08:04:39;;;;;;;19.88;11.48;;;2.70;57.50;;;;;;4936050;28;20046;-65
2022/03/13 08:07:05;;;;;;;23.13;12.25;;;2.80;57.20;;;;;;4937688;28;20032;-66
2022/03/13 08:09:30;;;;;;;22.15;12.63;;;2.90;57.10;;;;;;4938410;28;20148;-65
2022/03/13 08:11:56;;;;;;;23.35;12.45;;;2.90;57.10;;;;;;4936399;28;20122;-65
2022/03/13 08:14:21;;;;;;;24.88;12.32;;;3.10;57.10;;;;;;4933978;28;20039;-65
2022/03/13 08:16:47;;;;;;;24.85;14.35;;;3.20;57.20;;;;;;4937134;28;20118;-63
2022/03/13 08:19:13;;;;;;;27.63;15.70;;;3.30;57.30;;;;;;4937147;28;20526;-65
2022/03/13 08:21:39;;;;;;;31.52;17.15;;;3.30;57.40;;;;;;4936505;28;20042;-64
2022/03/13 08:24:07;;;;;;;31.33;16.15;;;3.50;57.50;;;;;;4937979;28;20044;-65
2022/03/13 08:26:39;;;;;;;29.65;16.27;;;3.60;57.80;;;;;;4936279;28;20072;-64
2022/03/13 08:29:06;;;;;;;27.05;15.95;;;3.70;58.50;;;;;;4935153;28;20039;-65
2022/03/13 08:31:33;;;;;;;27.95;16.48;;;3.80;57.90;;;;;;4933556;28;20138;-64
2022/03/13 08:34:00;;;;;;;28.17;16.05;;;3.90;57.90;;;;;;4938991;28;20466;-64
2022/03/13 08:36:25;;;;;;;28.15;16.00;;;4.00;57.90;;;;;;4934793;28;20044;-64
2022/03/13 08:38:52;;;;;;;29.15;15.75;;;4.10;57.90;;;;;;4938242;28;20090;-64
2022/03/13 08:41:18;;;;;;;33.03;16.27;;;4.20;57.90;;;;;;4936819;28;20048;-64
2022/03/13 08:43:44;;;;;;;31.02;16.45;;;4.30;57.70;;;;;;4939288;28;20526;-66
2022/03/13 08:46:10;;;;;;;33.17;17.00;;;4.50;57.60;;;;;;4936448;28;20038;-66
2022/03/13 08:48:35;;;;;;;29.25;16.13;;;4.60;57.50;;;;;;4936949;28;20042;-66
2022/03/13 08:51:02;;;;;;;28.63;15.15;;;4.70;57.50;;;;;;4937570;28;20031;-67
2022/03/13 08:53:28;;;;;;;32.08;17.52;;;4.80;57.50;;;;;;4936743;28;20039;-67
2022/03/13 08:55:53;;;;;;;25.50;14.90;;;4.90;57.30;;;;;;4937016;28;20043;-66
2022/03/13 08:58:19;;;;;;;32.25;16.17;;;5.10;57.20;;;;;;4934349;28;20067;-66
2022/03/13 09:00:45;;;;;;;26.27;15.52;;;5.20;57.10;;;;;;4935624;28;20040;-66
2022/03/13 09:03:10;;;;;;;27.20;16.15;;;5.30;57.00;;;;;;4933718;28;20062;-66
2022/03/13 09:05:36;;;;;;;28.52;17.33;;;5.40;57.00;;;;;;4935739;28;20499;-64
2022/03/13 09:08:03;;;;;;;28.48;16.58;;;5.50;56.70;;;;;;4937425;28;20027;-63
2022/03/13 09:10:28;;;;;;;29.67;16.35;;;5.60;56.60;;;;;;4931948;28;20036;-63
2022/03/13 09:12:54;;;;;;;27.50;16.60;;;5.70;56.60;;;;;;4936023;28;20034;-64
2022/03/13 09:15:20;;;;;;;29.17;16.85;;;5.80;56.50;;;;;;4938033;28;20114;-66
2022/03/13 09:17:53;;;;;;;27.58;15.75;;;5.90;56.50;;;;;;4939516;28;20094;-65
2022/03/13 09:20:20;;;;;;;29.25;15.68;;;6.00;56.50;;;;;;4934920;28;20075;-65
2022/03/13 09:22:46;;;;;;;28.85;16.02;;;6.10;56.40;;;;;;4938164;28;20511;-65
2022/03/13 09:25:12;;;;;;;26.90;15.52;;;6.20;56.30;;;;;;4939189;28;20186;-65
2022/03/13 09:27:37;;;;;;;26.58;15.80;;;6.30;56.20;;;;;;4934203;28;20129;-65
2022/03/13 09:30:04;;;;;;;27.83;15.57;;;6.40;56.10;;;;;;4936235;28;20115;-66
2022/03/13 09:32:29;;;;;;;26.60;15.05;;;6.60;56.00;;;;;;4936366;28;20039;-65
2022/03/13 09:34:55;;;;;;;22.95;14.48;;;6.70;55.80;;;;;;4936563;28;20031;-65
2022/03/13 09:37:23;;;;;;;25.70;14.52;;;6.90;55.50;;;;;;4938598;28;20075;-65
2022/03/13 09:39:50;;;;;;;25.30;14.50;;;6.90;55.10;;;;;;4939351;28;20625;-66
2022/03/13 09:42:15;;;;;;;25.45;14.13;;;7.00;55.10;;;;;;4940808;28;20494;-65
2022/03/13 09:44:41;;;;;;;23.65;14.35;;;7.10;55.10;;;;;;4937957;28;20099;-65
2022/03/13 09:47:10;;;;;;;23.48;14.95;;;7.20;55.00;;;;;;4939234;28;20031;-65
2022/03/13 09:49:36;;;;;;;22.88;13.85;;;7.40;54.80;;;;;;4939654;28;20348;-65
2022/03/13 09:52:02;;;;;;;22.67;13.00;;;7.50;54.60;;;;;;4939415;28;20035;-64
2022/03/13 09:54:27;;;;;;;19.75;12.95;;;7.60;54.50;;;;;;4937593;28;20094;-65
2022/03/13 09:56:53;;;;;;;21.23;13.18;;;7.70;54.50;;;;;;4939042;28;20050;-64
2022/03/13 09:59:19;;;;;;;22.40;13.82;;;7.90;54.40;;;;;;4936106;28;20456;-65
2022/03/13 10:01:44;;;;;;;21.70;13.45;;;8.00;54.20;;;;;;4938489;28;20079;-66
2022/03/13 10:04:12;;;;;;;22.25;13.43;;;8.10;54.00;;;;;;4939349;28;20448;-65
2022/03/13 10:07:03;;;;;;;17.80;12.27;;;8.30;53.90;;;;;;4939421;28;20121;-65
2022/03/13 10:09:29;;;;;;;21.40;12.48;;;8.40;53.60;;;;;;4937676;28;20118;-65
2022/03/13 10:12:25;;;;;;;20.75;12.50;;;8.50;53.70;;;;;;4934675;28;20046;-64
2022/03/13 10:15:09;;;;;;;18.90;11.85;;;8.70;53.20;;;;;;4929016;28;20028;-65
2022/03/13 10:17:37;;;;;;;18.27;11.65;;;8.80;52.90;;;;;;4937634;28;20086;-65
2022/03/13 10:20:20;;;;;;;26.15;12.55;;;9.00;53.10;;;;;;4939676;28;20531;-65
2022/03/13 10:22:49;;;;;;;21.35;12.43;;;9.20;52.30;;;;;;4938260;28;20433;-66
2022/03/13 10:25:36;;;;;;;19.92;12.57;;;9.30;52.60;;;;;;4939598;28;20143;-66
2022/03/13 10:28:17;;;;;;;20.10;11.98;;;9.50;52.00;;;;;;4940217;28;20036;-66
2022/03/13 10:30:44;;;;;;;21.52;13.20;;;9.60;51.70;;;;;;4938153;28;20074;-65
2022/03/13 10:33:10;;;;;;;21.80;13.30;;;9.80;51.80;;;;;;4943339;28;20038;-66
2022/03/13 10:35:37;;;;;;;22.27;13.40;;;9.90;51.70;;;;;;4945744;28;20043;-65
2022/03/13 10:38:17;;;;;;;19.38;13.45;;;10.00;51.50;;;;;;4945205;28;20521;-66
2022/03/13 10:40:42;;;;;;;21.15;12.60;;;10.20;51.30;;;;;;4944772;28;20051;-66
2022/03/13 10:43:09;;;;;;;18.55;12.48;;;10.30;51.20;;;;;;4943624;28;20036;-66
2022/03/13 10:45:39;;;;;;;20.92;13.32;;;10.40;50.90;;;;;;4944295;28;20122;-66
2022/03/13 10:48:22;;;;;;;19.73;12.95;;;10.50;50.60;;;;;;4944743;28;20028;-66
2022/03/13 10:50:52;;;;;;;21.50;13.05;;;10.70;49.80;;;;;;4944771;28;20511;-66
2022/03/13 10:53:19;;;;;;;18.05;12.25;;;10.80;49.90;;;;;;4945643;28;20055;-66
2022/03/13 10:56:02;;;;;;;21.60;13.65;;;10.90;49.20;;;;;;4945601;28;20051;-67
2022/03/13 10:58:29;;;;;;;19.90;12.50;;;11.00;49.00;;;;;;4942536;28;20039;-67
2022/03/13 11:01:16;;;;;;;19.85;12.90;;;11.10;49.70;;;;;;4944366;28;20055;-67
2022/03/13 11:03:59;;;;;;;16.92;11.65;;;11.20;48.00;;;;;;4946603;28;20032;-65
2022/03/13 11:06:26;;;;;;;22.33;14.27;;;11.30;48.60;;;;;;4942373;28;20047;-65
2022/03/13 11:08:55;;;;;;;20.58;13.38;;;11.40;47.80;;;;;;4943754;28;20054;-65
2022/03/13 11:11:22;;;;;;;25.88;14.40;;;11.50;48.40;;;;;;4940992;28;20426;-65
2022/03/13 11:13:54;;;;;;;20.10;12.90;;;11.60;47.90;;;;;;4941068;28;20051;-65
2022/03/13 11:16:27;;;;;;;22.80;13.90;;;11.70;48.10;;;;;;4940631;28;20417;-66
2022/03/13 11:18:55;;;;;;;18.00;12.48;;;11.80;47.20;;;;;;4941643;28;20036;-65
2022/03/13 11:21:21;;;;;;;17.90;12.10;;;11.90;47.80;;;;;;4942068;28;20123;-65
2022/03/13 11:23:47;;;;;;;19.65;13.52;;;11.90;47.90;;;;;;4941439;28;20143;-64
2022/03/13 11:26:18;;;;;;;18.42;11.95;;;12.00;47.10;;;;;;4940305;28;20504;-66
2022/03/13 11:28:46;;;;;;;17.35;11.30;;;12.10;46.90;;;;;;4941017;28;20046;-65
2022/03/13 11:31:40;;;;;;;17.10;11.65;;;12.20;47.10;;;;;;4940833;28;20422;-65
2022/03/13 11:34:18;;;;;;;17.90;11.50;;;12.30;46.00;;;;;;4943102;28;20130;-65
2022/03/13 11:36:50;;;;;;;18.90;11.50;;;12.40;46.70;;;;;;4941885;28;20047;-65
2022/03/13 11:39:31;;;;;;;16.23;11.38;;;12.40;45.70;;;;;;4942459;28;20032;-65
2022/03/13 11:41:57;;;;;;;15.38;10.60;;;12.60;44.80;;;;;;4945068;28;20538;-65
2022/03/13 11:44:23;;;;;;;17.42;10.18;;;12.60;45.70;;;;;;4941496;28;20039;-64
2022/03/13 11:46:50;;;;;;;16.30;11.07;;;12.80;45.90;;;;;;4935744;28;20411;-66
2022/03/13 11:49:31;;;;;;;15.00;9.70;;;12.80;45.80;;;;;;4942053;28;20122;-66
2022/03/13 11:52:16;;;;;;;14.73;9.52;;;12.90;45.30;;;;;;4942552;28;20058;-65
2022/03/13 11:54:45;;;;;;;16.63;10.25;;;13.00;44.50;;;;;;4939066;28;20736;-66
2022/03/13 11:57:18;;;;;;;14.35;10.48;;;13.10;44.30;;;;;;4941053;28;20530;-66
2022/03/13 11:59:48;;;;;;;15.10;10.88;;;13.20;44.40;;;;;;4939435;28;20054;-66
2022/03/13 12:02:40;;;;;;;15.98;10.05;;;13.30;44.20;;;;;;4944958;28;20039;-66
2022/03/13 12:05:24;;;;;;;15.38;10.75;;;13.40;43.80;;;;;;4940677;28;20036;-66
2022/03/13 12:07:53;;;;;;;15.63;11.13;;;13.50;42.50;;;;;;4940439;28;20301;-65
2022/03/13 12:10:35;;;;;;;15.68;10.43;;;13.60;43.10;;;;;;4940526;28;20299;-65
2022/03/13 12:13:03;;;;;;;16.27;10.80;;;13.70;42.30;;;;;;4940092;28;20102;-65
2022/03/13 12:15:29;;;;;;;15.65;10.20;;;13.80;41.20;;;;;;4939945;28;20040;-65
2022/03/13 12:17:57;;;;;;;15.25;10.65;;;13.80;42.20;;;;;;4941780;28;20079;-66
2022/03/13 12:20:28;;;;;;;14.27;9.98;;;13.90;40.70;;;;;;4937985;28;20114;-66
2022/03/13 12:22:56;;;;;;;13.02;8.70;;;14.00;41.60;;;;;;4934339;28;20036;-65
2022/03/13 12:25:27;;;;;;;14.20;9.50;;;14.10;42.10;;;;;;4942393;28;20554;-65
2022/03/13 12:27:54;;;;;;;13.85;9.15;;;14.20;40.30;;;;;;4939726;28;20054;-66
2022/03/13 12:30:27;;;;;;;12.45;8.77;;;14.20;41.00;;;;;;4938643;28;20028;-65
2022/03/13 12:33:06;;;;;;;14.45;9.77;;;14.30;40.20;;;;;;4940350;28;20031;-65
2022/03/13 12:35:32;;;;;;;14.05;9.55;;;14.30;39.70;;;;;;4939118;28;20178;-65
2022/03/13 12:38:02;;;;;;;16.27;10.57;;;14.40;40.70;;;;;;4939486;28;20063;-66
2022/03/13 12:40:31;;;;;;;15.50;11.05;;;14.40;40.10;;;;;;4937737;28;20042;-64